Linda — OJML — position and weather

sailwx.info

Track history (hours):
 
Tides and Currents Weather Stations Pressure Air Temp Water Temp Dewpoint Dewpoint Depression Visibility Wind Speed Wind Dir Waves Ship Positions

Linda

Last reported at 2015-Apr-18 21:07 UTC. Time now 2015-Apr-19 01:03 UTC.
Position N 57°08' E 007°51'.

Length 141 m; draft 8 m.

Type: Ship (hazmat cat A). MMSI: 230984000.

Date/timePositionNaut miles runAvg speedWind from/ knotsBaromVisibWave heightAir tempDewpointWater temp
2015-Apr-18 21:07N 57°08' E 007°51'916.1
2015-Apr-18 20:33N 57°12' E 008°05'1615.9
2015-Apr-18 19:33N 57°18' E 008°33'1616.1
2015-Apr-18 18:33N 57°24' E 008°60'1615.9
2015-Apr-18 17:33N 57°31' E 009°26'1615.6
2015-Apr-18 16:34N 57°38' E 009°53'1515.2
2015-Apr-18 15:33N 57°44' E 010°19'1515.4
2015-Apr-18 14:34N 57°47' E 010°47'1615.8
2015-Apr-18 13:34N 57°36' E 011°09'1615.9
2015-Apr-18 12:33N 57°24' E 011°28'1716.8
2015-Apr-18 11:33N 57°08' E 011°38'1616.1
2015-Apr-18 10:33N 56°53' E 011°48'1414.3
2015-Apr-18 09:33N 56°39' E 011°47'1616.0
2015-Apr-18 08:33N 56°25' E 011°32'10514.4
2015-Apr-18 01:17N 54°42' E 010°53'1115.4
2015-Apr-18 00:33N 54°36' E 011°10'1615.8
2015-Apr-17 23:33N 54°30' E 011°34'1615.7
2015-Apr-17 22:33N 54°27' E 012°01'4414.8
2015-Apr-17 19:33N 54°51' E 013°04'2016.3
2015-Apr-17 18:19N 54°59' E 013°37'417 9.3
2015-Apr-15 21:33N 59°37' E 023°13'1817.8
2015-Apr-15 20:33N 59°43' E 023°46'1917.5
2015-Apr-15 19:27N 59°49' E 024°22'3116.1
2015-Apr-15 17:33N 60°07' E 025°12'6 2.8
2015-Apr-15 15:30N 60°13' E 025°12'0 0.0
2015-Apr-15 13:24N 60°13' E 025°12'0 0.0
2015-Apr-15 12:27N 60°13' E 025°12'0 0.0
2015-Apr-15 11:21N 60°13' E 025°12'0 0.0
2015-Apr-15 10:27N 60°13' E 025°12'0 0.0
2015-Apr-15 09:18N 60°13' E 025°12'0 0.0
2015-Apr-15 08:33N 60°13' E 025°12'0 0.0
2015-Apr-15 07:24N 60°13' E 025°12'0 0.0
2015-Apr-15 06:33N 60°13' E 025°12'0 0.0
2015-Apr-15 05:32N 60°13' E 025°12'0 0.0
2015-Apr-15 04:32N 60°13' E 025°12'0 0.0
2015-Apr-14 23:14N 60°13' E 025°12'0 0.0
2015-Apr-14 19:25N 60°13' E 025°12'7 8.4
2015-Apr-14 18:32N 60°05' E 025°10'2913.9
2015-Apr-14 16:26N 59°58' E 026°07'1516.9
2015-Apr-14 15:32N 60°02' E 026°37'9215.3
2015-Apr-14 09:33N 59°60' E 029°40'2 0.7
2015-Apr-14 07:27N 60°00' E 029°43'0 0.0
2015-Apr-14 06:30N 60°00' E 029°43'0 0.0
2015-Apr-14 05:30N 60°00' E 029°43'0 0.0
2015-Apr-14 04:33N 60°00' E 029°43'0 0.0
2015-Apr-14 03:30N 60°00' E 029°43'0 0.0
2015-Apr-14 02:33N 60°00' E 029°43'0 0.0
2015-Apr-14 01:33N 60°00' E 029°43'0 0.0
2015-Apr-14 00:30N 60°00' E 029°43'0 0.0
2015-Apr-13 16:15N 60°00' E 029°43'4 6.2
2015-Apr-13 15:33N 60°01' E 029°34'8716.3
2015-Apr-13 10:12N 59°59' E 026°40'1218.0
2015-Apr-13 09:31N 59°56' E 026°17'4418.0
2015-Apr-13 07:05N 59°46' E 024°51'1018.0
2015-Apr-13 06:33N 59°44' E 024°32'373 7.5
2015-Apr-11 04:32N 55°42' E 015°40'1515.5
2015-Apr-11 03:34N 55°35' E 015°16'1615.7
2015-Apr-11 02:33N 55°27' E 014°52'1615.8
2015-Apr-11 01:34N 55°18' E 014°31'1515.2
2015-Apr-11 00:34N 55°10' E 014°07'1615.7
2015-Apr-10 23:33N 55°12' E 013°40'2415.9
2015-Apr-10 22:03N 55°14' E 012°58'815.7
2015-Apr-10 21:33N 55°16' E 012°45'1313.0
2015-Apr-10 20:34N 55°29' E 012°41'9 9.3
2015-Apr-10 19:33N 55°38' E 012°42'1312.5
2015-Apr-10 18:34N 55°51' E 012°41'1514.6
2015-Apr-10 17:33N 56°05' E 012°35'1515.0
2015-Apr-10 16:33N 56°14' E 012°13'3415.0
2015-Apr-10 14:19N 56°45' E 011°52'1215.8
2015-Apr-10 13:33N 56°57' E 011°44'1615.8
2015-Apr-10 12:33N 57°12' E 011°34'1615.8
2015-Apr-10 11:33N 57°26' E 011°24'1615.6
2015-Apr-10 10:33N 57°37' E 011°03'1616.2
2015-Apr-10 09:33N 57°47' E 010°39'2116.3
2015-Apr-10 08:16N 57°40' E 010°02'1516.3
2015-Apr-10 07:22N 57°33' E 009°38'1316.2
2015-Apr-10 06:33N 57°25' E 009°17'1716.1
2015-Apr-10 05:29N 57°16' E 008°51'10015.7
2015-Apr-09 23:08N 55°56' E 007°02'2915.9
2015-Apr-09 21:20N 55°32' E 006°35'9215.8
2015-Apr-09 15:31N 54°15' E 005°08'1515.2
2015-Apr-09 14:33N 54°01' E 004°58'1615.6
2015-Apr-09 13:32N 53°46' E 004°53'1515.5
2015-Apr-09 12:33N 53°31' E 004°46'1212.5
2015-Apr-09 11:33N 53°20' E 004°38'1615.6
2015-Apr-09 10:31N 53°05' E 004°25'1515.7
2015-Apr-09 09:34N 52°52' E 004°14'1616.1
2015-Apr-09 08:33N 52°38' E 004°01'1616.4
2015-Apr-09 07:33N 52°22' E 003°52'1817.7
2015-Apr-09 06:33N 52°05' E 003°55'1413.7
2015-Apr-09 05:33N 51°56' E 004°12'9 8.6
2015-Apr-09 04:33N 51°53' E 004°25'0 0.0
2015-Apr-09 03:32N 51°53' E 004°25'0 0.0
2015-Apr-09 02:32N 51°53' E 004°25'0 0.0
2015-Apr-09 01:32N 51°53' E 004°25'0 0.0
2015-Apr-09 00:32N 51°53' E 004°25'0 0.0
2015-Apr-08 23:32N 51°53' E 004°25'0 0.0
2015-Apr-08 22:32N 51°53' E 004°25'0 0.0
2015-Apr-08 21:32N 51°53' E 004°25'  
Track history (hours):
 
Tides and Currents Weather Stations Pressure Air Temp Water Temp Dewpoint Dewpoint Depression Visibility Wind Speed Wind Dir Waves Ship Positions

Linda

Last reported at 2015-Apr-18 21:07 UTC. Time now 2015-Apr-19 01:03 UTC.
Position N 57°08' E 007°51'.

Length 141 m; draft 8 m.

Type: Ship (hazmat cat A). MMSI: 230984000.

Date/timePositionNaut miles runAvg speedWind from/ knotsBaromVisibWave heightAir tempDewpointWater temp
2015-Apr-18 21:07N 57°08' E 007°51'916.1
2015-Apr-18 20:33N 57°12' E 008°05'1615.9
2015-Apr-18 19:33N 57°18' E 008°33'1616.1
2015-Apr-18 18:33N 57°24' E 008°60'1615.9
2015-Apr-18 17:33N 57°31' E 009°26'1615.6
2015-Apr-18 16:34N 57°38' E 009°53'1515.2
2015-Apr-18 15:33N 57°44' E 010°19'1515.4
2015-Apr-18 14:34N 57°47' E 010°47'1615.8
2015-Apr-18 13:34N 57°36' E 011°09'1615.9
2015-Apr-18 12:33N 57°24' E 011°28'1716.8
2015-Apr-18 11:33N 57°08' E 011°38'1616.1
2015-Apr-18 10:33N 56°53' E 011°48'1414.3
2015-Apr-18 09:33N 56°39' E 011°47'1616.0
2015-Apr-18 08:33N 56°25' E 011°32'10514.4
2015-Apr-18 01:17N 54°42' E 010°53'1115.4
2015-Apr-18 00:33N 54°36' E 011°10'1615.8
2015-Apr-17 23:33N 54°30' E 011°34'1615.7
2015-Apr-17 22:33N 54°27' E 012°01'4414.8
2015-Apr-17 19:33N 54°51' E 013°04'2016.3
2015-Apr-17 18:19N 54°59' E 013°37'417 9.3
2015-Apr-15 21:33N 59°37' E 023°13'1817.8
2015-Apr-15 20:33N 59°43' E 023°46'1917.5
2015-Apr-15 19:27N 59°49' E 024°22'3116.1
2015-Apr-15 17:33N 60°07' E 025°12'6 2.8
2015-Apr-15 15:30N 60°13' E 025°12'0 0.0
2015-Apr-15 13:24N 60°13' E 025°12'0 0.0
2015-Apr-15 12:27N 60°13' E 025°12'0 0.0
2015-Apr-15 11:21N 60°13' E 025°12'0 0.0
2015-Apr-15 10:27N 60°13' E 025°12'0 0.0
2015-Apr-15 09:18N 60°13' E 025°12'0 0.0
2015-Apr-15 08:33N 60°13' E 025°12'0 0.0
2015-Apr-15 07:24N 60°13' E 025°12'0 0.0
2015-Apr-15 06:33N 60°13' E 025°12'0 0.0
2015-Apr-15 05:32N 60°13' E 025°12'0 0.0
2015-Apr-15 04:32N 60°13' E 025°12'0 0.0
2015-Apr-14 23:14N 60°13' E 025°12'0 0.0
2015-Apr-14 19:25N 60°13' E 025°12'7 8.4
2015-Apr-14 18:32N 60°05' E 025°10'2913.9
2015-Apr-14 16:26N 59°58' E 026°07'1516.9
2015-Apr-14 15:32N 60°02' E 026°37'9215.3
2015-Apr-14 09:33N 59°60' E 029°40'2 0.7
2015-Apr-14 07:27N 60°00' E 029°43'0 0.0
2015-Apr-14 06:30N 60°00' E 029°43'0 0.0
2015-Apr-14 05:30N 60°00' E 029°43'0 0.0
2015-Apr-14 04:33N 60°00' E 029°43'0 0.0
2015-Apr-14 03:30N 60°00' E 029°43'0 0.0
2015-Apr-14 02:33N 60°00' E 029°43'0 0.0
2015-Apr-14 01:33N 60°00' E 029°43'0 0.0
2015-Apr-14 00:30N 60°00' E 029°43'0 0.0
2015-Apr-13 16:15N 60°00' E 029°43'4 6.2
2015-Apr-13 15:33N 60°01' E 029°34'8716.3
2015-Apr-13 10:12N 59°59' E 026°40'1218.0
2015-Apr-13 09:31N 59°56' E 026°17'4418.0
2015-Apr-13 07:05N 59°46' E 024°51'1018.0
2015-Apr-13 06:33N 59°44' E 024°32'373 7.5
2015-Apr-11 04:32N 55°42' E 015°40'1515.5
2015-Apr-11 03:34N 55°35' E 015°16'1615.7
2015-Apr-11 02:33N 55°27' E 014°52'1615.8
2015-Apr-11 01:34N 55°18' E 014°31'1515.2
2015-Apr-11 00:34N 55°10' E 014°07'1615.7
2015-Apr-10 23:33N 55°12' E 013°40'2415.9
2015-Apr-10 22:03N 55°14' E 012°58'815.7
2015-Apr-10 21:33N 55°16' E 012°45'1313.0
2015-Apr-10 20:34N 55°29' E 012°41'9 9.3
2015-Apr-10 19:33N 55°38' E 012°42'1312.5
2015-Apr-10 18:34N 55°51' E 012°41'1514.6
2015-Apr-10 17:33N 56°05' E 012°35'1515.0
2015-Apr-10 16:33N 56°14' E 012°13'3415.0
2015-Apr-10 14:19N 56°45' E 011°52'1215.8
2015-Apr-10 13:33N 56°57' E 011°44'1615.8
2015-Apr-10 12:33N 57°12' E 011°34'1615.8
2015-Apr-10 11:33N 57°26' E 011°24'1615.6
2015-Apr-10 10:33N 57°37' E 011°03'1616.2
2015-Apr-10 09:33N 57°47' E 010°39'2116.3
2015-Apr-10 08:16N 57°40' E 010°02'1516.3
2015-Apr-10 07:22N 57°33' E 009°38'1316.2
2015-Apr-10 06:33N 57°25' E 009°17'1716.1
2015-Apr-10 05:29N 57°16' E 008°51'10015.7
2015-Apr-09 23:08N 55°56' E 007°02'2915.9
2015-Apr-09 21:20N 55°32' E 006°35'9215.8
2015-Apr-09 15:31N 54°15' E 005°08'1515.2
2015-Apr-09 14:33N 54°01' E 004°58'1615.6
2015-Apr-09 13:32N 53°46' E 004°53'1515.5
2015-Apr-09 12:33N 53°31' E 004°46'1212.5
2015-Apr-09 11:33N 53°20' E 004°38'1615.6
2015-Apr-09 10:31N 53°05' E 004°25'1515.7
2015-Apr-09 09:34N 52°52' E 004°14'1616.1
2015-Apr-09 08:33N 52°38' E 004°01'1616.4
2015-Apr-09 07:33N 52°22' E 003°52'1817.7
2015-Apr-09 06:33N 52°05' E 003°55'1413.7
2015-Apr-09 05:33N 51°56' E 004°12'9 8.6
2015-Apr-09 04:33N 51°53' E 004°25'0 0.0
2015-Apr-09 03:32N 51°53' E 004°25'0 0.0
2015-Apr-09 02:32N 51°53' E 004°25'0 0.0
2015-Apr-09 01:32N 51°53' E 004°25'0 0.0
2015-Apr-09 00:32N 51°53' E 004°25'0 0.0
2015-Apr-08 23:32N 51°53' E 004°25'0 0.0
2015-Apr-08 22:32N 51°53' E 004°25'0 0.0
2015-Apr-08 21:32N 51°53' E 004°25'  

Dump ship's entire track history